sensor_id;sensor_type;location;lat;lon;timestamp;temperature;humidity
55828;DHT22;41758;51.992;5.890;2023-07-02T00:00:03;23.00;72.60
55828;DHT22;41758;51.992;5.890;2023-07-02T00:02:38;23.00;72.70
55828;DHT22;41758;51.992;5.890;2023-07-02T00:05:04;22.90;72.60
55828;DHT22;41758;51.992;5.890;2023-07-02T00:07:30;22.90;72.60
55828;DHT22;41758;51.992;5.890;2023-07-02T00:09:56;22.90;72.70
55828;DHT22;41758;51.992;5.890;2023-07-02T00:12:22;22.90;72.80
55828;DHT22;41758;51.992;5.890;2023-07-02T00:14:48;22.90;72.70
55828;DHT22;41758;51.992;5.890;2023-07-02T00:17:14;22.90;72.80
55828;DHT22;41758;51.992;5.890;2023-07-02T00:19:40;22.90;72.60
55828;DHT22;41758;51.992;5.890;2023-07-02T00:22:08;23.00;72.70
55828;DHT22;41758;51.992;5.890;2023-07-02T00:24:35;22.90;72.70
55828;DHT22;41758;51.992;5.890;2023-07-02T00:27:00;22.90;72.40
55828;DHT22;41758;51.992;5.890;2023-07-02T00:29:26;22.90;72.60
55828;DHT22;41758;51.992;5.890;2023-07-02T00:31:52;22.90;72.50
55828;DHT22;41758;51.992;5.890;2023-07-02T00:34:18;22.90;72.20
55828;DHT22;41758;51.992;5.890;2023-07-02T00:36:44;22.80;72.40
55828;DHT22;41758;51.992;5.890;2023-07-02T00:39:10;22.80;72.40
55828;DHT22;41758;51.992;5.890;2023-07-02T00:41:38;22.80;72.60
55828;DHT22;41758;51.992;5.890;2023-07-02T00:44:04;22.80;72.50
55828;DHT22;41758;51.992;5.890;2023-07-02T00:46:30;22.80;72.30
55828;DHT22;41758;51.992;5.890;2023-07-02T00:48:56;22.60;72.20
55828;DHT22;41758;51.992;5.890;2023-07-02T00:51:24;22.50;71.60
55828;DHT22;41758;51.992;5.890;2023-07-02T00:53:51;22.40;71.50
55828;DHT22;41758;51.992;5.890;2023-07-02T00:56:17;22.20;71.70
55828;DHT22;41758;51.992;5.890;2023-07-02T00:58:46;22.10;71.70
55828;DHT22;41758;51.992;5.890;2023-07-02T01:01:21;22.00;71.80
55828;DHT22;41758;51.992;5.890;2023-07-02T01:04:01;21.90;71.40
55828;DHT22;41758;51.992;5.890;2023-07-02T01:06:31;21.80;71.20
55828;DHT22;41758;51.992;5.890;2023-07-02T01:08:59;21.70;71.10
55828;DHT22;41758;51.992;5.890;2023-07-02T01:11:46;21.50;71.30
55828;DHT22;41758;51.992;5.890;2023-07-02T01:14:26;21.40;71.10
55828;DHT22;41758;51.992;5.890;2023-07-02T01:16:55;21.30;71.10
55828;DHT22;41758;51.992;5.890;2023-07-02T01:19:44;21.30;71.40
55828;DHT22;41758;51.992;5.890;2023-07-02T01:22:11;21.20;71.50
55828;DHT22;41758;51.992;5.890;2023-07-02T01:24:41;21.10;71.40
55828;DHT22;41758;51.992;5.890;2023-07-02T01:27:07;21.10;71.50
55828;DHT22;41758;51.992;5.890;2023-07-02T01:29:33;21.00;71.80
55828;DHT22;41758;51.992;5.890;2023-07-02T01:32:02;21.00;71.80
55828;DHT22;41758;51.992;5.890;2023-07-02T01:34:28;20.90;71.50
55828;DHT22;41758;51.992;5.890;2023-07-02T01:36:54;20.90;71.60
55828;DHT22;41758;51.992;5.890;2023-07-02T01:39:20;20.90;71.80
55828;DHT22;41758;51.992;5.890;2023-07-02T01:41:53;20.90;71.90
55828;DHT22;41758;51.992;5.890;2023-07-02T01:44:20;20.90;71.90
55828;DHT22;41758;51.992;5.890;2023-07-02T01:46:46;20.80;71.70
55828;DHT22;41758;51.992;5.890;2023-07-02T01:49:20;20.80;71.70
55828;DHT22;41758;51.992;5.890;2023-07-02T01:51:51;20.80;71.90
55828;DHT22;41758;51.992;5.890;2023-07-02T01:54:17;20.80;71.70
55828;DHT22;41758;51.992;5.890;2023-07-02T01:56:43;20.80;71.70
55828;DHT22;41758;51.992;5.890;2023-07-02T01:59:09;20.60;71.40
55828;DHT22;41758;51.992;5.890;2023-07-02T02:01:35;20.60;71.40
55828;DHT22;41758;51.992;5.890;2023-07-02T02:04:00;20.60;71.60
55828;DHT22;41758;51.992;5.890;2023-07-02T02:06:26;20.60;71.70
55828;DHT22;41758;51.992;5.890;2023-07-02T02:08:52;20.50;71.60
55828;DHT22;41758;51.992;5.890;2023-07-02T02:11:18;20.50;71.60
55828;DHT22;41758;51.992;5.890;2023-07-02T02:13:43;20.50;71.50
55828;DHT22;41758;51.992;5.890;2023-07-02T02:16:09;20.40;71.30
55828;DHT22;41758;51.992;5.890;2023-07-02T02:18:35;20.40;71.50
55828;DHT22;41758;51.992;5.890;2023-07-02T02:21:01;20.40;71.60
55828;DHT22;41758;51.992;5.890;2023-07-02T02:23:27;20.40;71.70
55828;DHT22;41758;51.992;5.890;2023-07-02T02:25:52;20.40;71.70
55828;DHT22;41758;51.992;5.890;2023-07-02T02:28:18;20.30;71.60
55828;DHT22;41758;51.992;5.890;2023-07-02T02:30:44;20.30;71.70
55828;DHT22;41758;51.992;5.890;2023-07-02T02:33:10;20.30;71.70
55828;DHT22;41758;51.992;5.890;2023-07-02T02:35:35;20.30;71.70
55828;DHT22;41758;51.992;5.890;2023-07-02T02:38:03;20.30;71.80
55828;DHT22;41758;51.992;5.890;2023-07-02T02:40:30;20.30;71.80
55828;DHT22;41758;51.992;5.890;2023-07-02T02:42:55;20.30;71.70
55828;DHT22;41758;51.992;5.890;2023-07-02T02:45:22;20.30;71.70
55828;DHT22;41758;51.992;5.890;2023-07-02T02:47:48;20.30;71.70
55828;DHT22;41758;51.992;5.890;2023-07-02T02:50:13;20.30;71.70
55828;DHT22;41758;51.992;5.890;2023-07-02T02:52:39;20.20;71.70
55828;DHT22;41758;51.992;5.890;2023-07-02T02:55:06;20.20;71.70
55828;DHT22;41758;51.992;5.890;2023-07-02T02:57:33;20.20;71.60
55828;DHT22;41758;51.992;5.890;2023-07-02T02:59:59;20.20;71.70
55828;DHT22;41758;51.992;5.890;2023-07-02T03:02:25;20.20;71.70
55828;DHT22;41758;51.992;5.890;2023-07-02T03:04:51;20.20;71.70
55828;DHT22;41758;51.992;5.890;2023-07-02T03:07:17;20.10;71.70
55828;DHT22;41758;51.992;5.890;2023-07-02T03:09:43;20.10;71.60
55828;DHT22;41758;51.992;5.890;2023-07-02T03:12:09;20.10;71.60
55828;DHT22;41758;51.992;5.890;2023-07-02T03:14:35;20.10;71.70
55828;DHT22;41758;51.992;5.890;2023-07-02T03:17:01;20.10;71.70
55828;DHT22;41758;51.992;5.890;2023-07-02T03:19:27;20.10;71.80
55828;DHT22;41758;51.992;5.890;2023-07-02T03:21:52;20.00;71.80
55828;DHT22;41758;51.992;5.890;2023-07-02T03:24:18;20.10;71.90
55828;DHT22;41758;51.992;5.890;2023-07-02T03:26:44;20.00;71.80
55828;DHT22;41758;51.992;5.890;2023-07-02T03:29:10;20.00;71.80
55828;DHT22;41758;51.992;5.890;2023-07-02T03:31:36;20.00;71.90
55828;DHT22;41758;51.992;5.890;2023-07-02T03:34:05;20.10;72.00
55828;DHT22;41758;51.992;5.890;2023-07-02T03:36:31;20.10;72.00
55828;DHT22;41758;51.992;5.890;2023-07-02T03:38:57;20.10;72.10
55828;DHT22;41758;51.992;5.890;2023-07-02T03:41:23;20.10;72.10
55828;DHT22;41758;51.992;5.890;2023-07-02T03:43:49;20.20;72.10
55828;DHT22;41758;51.992;5.890;2023-07-02T03:46:15;20.20;72.10
55828;DHT22;41758;51.992;5.890;2023-07-02T03:48:40;20.30;72.10
55828;DHT22;41758;51.992;5.890;2023-07-02T03:51:06;20.30;72.10
55828;DHT22;41758;51.992;5.890;2023-07-02T03:53:32;20.30;72.10
55828;DHT22;41758;51.992;5.890;2023-07-02T03:55:58;20.30;72.10
55828;DHT22;41758;51.992;5.890;2023-07-02T03:58:24;20.30;72.10
55828;DHT22;41758;51.992;5.890;2023-07-02T04:00:49;20.30;72.00
55828;DHT22;41758;51.992;5.890;2023-07-02T04:03:18;20.30;72.00
55828;DHT22;41758;51.992;5.890;2023-07-02T04:05:44;20.30;72.00
55828;DHT22;41758;51.992;5.890;2023-07-02T04:08:10;20.30;72.00
55828;DHT22;41758;51.992;5.890;2023-07-02T04:10:36;20.30;72.00
55828;DHT22;41758;51.992;5.890;2023-07-02T04:13:07;20.30;72.00
55828;DHT22;41758;51.992;5.890;2023-07-02T04:15:46;20.30;72.00
55828;DHT22;41758;51.992;5.890;2023-07-02T04:18:12;20.30;72.00
55828;DHT22;41758;51.992;5.890;2023-07-02T04:20:38;20.30;71.90
55828;DHT22;41758;51.992;5.890;2023-07-02T04:23:06;20.30;71.90
55828;DHT22;41758;51.992;5.890;2023-07-02T04:25:32;20.30;72.00
55828;DHT22;41758;51.992;5.890;2023-07-02T04:27:58;20.30;72.10
55828;DHT22;41758;51.992;5.890;2023-07-02T04:30:25;20.30;72.10
55828;DHT22;41758;51.992;5.890;2023-07-02T04:32:51;20.30;72.00
55828;DHT22;41758;51.992;5.890;2023-07-02T04:35:17;20.30;72.00
55828;DHT22;41758;51.992;5.890;2023-07-02T04:37:43;20.30;71.90
55828;DHT22;41758;51.992;5.890;2023-07-02T04:40:09;20.30;72.00
55828;DHT22;41758;51.992;5.890;2023-07-02T04:42:39;20.30;72.00
55828;DHT22;41758;51.992;5.890;2023-07-02T04:45:07;20.20;72.00
55828;DHT22;41758;51.992;5.890;2023-07-02T04:47:34;20.20;72.00
55828;DHT22;41758;51.992;5.890;2023-07-02T04:50:00;20.20;72.00
55828;DHT22;41758;51.992;5.890;2023-07-02T04:52:26;20.20;72.00
55828;DHT22;41758;51.992;5.890;2023-07-02T04:54:53;20.20;72.10
55828;DHT22;41758;51.992;5.890;2023-07-02T04:57:18;20.20;72.10
55828;DHT22;41758;51.992;5.890;2023-07-02T04:59:44;20.20;72.10
55828;DHT22;41758;51.992;5.890;2023-07-02T05:02:10;20.20;72.20
55828;DHT22;41758;51.992;5.890;2023-07-02T05:04:36;20.30;72.30
55828;DHT22;41758;51.992;5.890;2023-07-02T05:07:05;20.20;72.40
55828;DHT22;41758;51.992;5.890;2023-07-02T05:09:31;20.30;72.40
55828;DHT22;41758;51.992;5.890;2023-07-02T05:11:57;20.30;72.40
55828;DHT22;41758;51.992;5.890;2023-07-02T05:14:23;20.30;72.40
55828;DHT22;41758;51.992;5.890;2023-07-02T05:16:49;20.30;72.40
55828;DHT22;41758;51.992;5.890;2023-07-02T05:19:15;20.30;72.40
55828;DHT22;41758;51.992;5.890;2023-07-02T05:21:41;20.30;72.00
55828;DHT22;41758;51.992;5.890;2023-07-02T05:24:08;20.30;72.30
55828;DHT22;41758;51.992;5.890;2023-07-02T05:26:34;20.30;72.40
55828;DHT22;41758;51.992;5.890;2023-07-02T05:29:00;20.30;72.40
55828;DHT22;41758;51.992;5.890;2023-07-02T05:31:26;20.30;72.60
55828;DHT22;41758;51.992;5.890;2023-07-02T05:33:53;20.30;72.60
55828;DHT22;41758;51.992;5.890;2023-07-02T05:36:20;20.40;72.70
55828;DHT22;41758;51.992;5.890;2023-07-02T05:38:45;20.40;72.40
55828;DHT22;41758;51.992;5.890;2023-07-02T05:41:11;20.40;72.40
55828;DHT22;41758;51.992;5.890;2023-07-02T05:43:42;20.40;72.50
55828;DHT22;41758;51.992;5.890;2023-07-02T05:46:08;20.40;72.60
55828;DHT22;41758;51.992;5.890;2023-07-02T05:48:34;20.50;72.60
55828;DHT22;41758;51.992;5.890;2023-07-02T05:51:00;20.50;72.60
55828;DHT22;41758;51.992;5.890;2023-07-02T05:53:25;20.50;72.40
55828;DHT22;41758;51.992;5.890;2023-07-02T05:55:51;20.50;72.50
55828;DHT22;41758;51.992;5.890;2023-07-02T05:58:17;20.50;72.60
55828;DHT22;41758;51.992;5.890;2023-07-02T06:00:42;20.60;72.70
55828;DHT22;41758;51.992;5.890;2023-07-02T06:03:15;20.60;72.50
55828;DHT22;41758;51.992;5.890;2023-07-02T06:05:46;20.60;72.70
55828;DHT22;41758;51.992;5.890;2023-07-02T06:08:13;20.60;72.60
55828;DHT22;41758;51.992;5.890;2023-07-02T06:10:38;20.70;72.70
55828;DHT22;41758;51.992;5.890;2023-07-02T06:13:04;20.80;72.80
55828;DHT22;41758;51.992;5.890;2023-07-02T06:15:30;20.80;72.60
55828;DHT22;41758;51.992;5.890;2023-07-02T06:17:56;20.80;72.40
55828;DHT22;41758;51.992;5.890;2023-07-02T06:20:21;20.80;72.10
55828;DHT22;41758;51.992;5.890;2023-07-02T06:22:47;20.80;72.10
55828;DHT22;41758;51.992;5.890;2023-07-02T06:25:13;20.80;72.20
55828;DHT22;41758;51.992;5.890;2023-07-02T06:27:39;20.80;72.40
55828;DHT22;41758;51.992;5.890;2023-07-02T06:30:05;20.80;72.40
55828;DHT22;41758;51.992;5.890;2023-07-02T06:32:31;20.80;72.10
55828;DHT22;41758;51.992;5.890;2023-07-02T06:34:57;20.80;72.00
55828;DHT22;41758;51.992;5.890;2023-07-02T06:37:23;20.80;72.20
55828;DHT22;41758;51.992;5.890;2023-07-02T06:39:49;20.80;72.40
55828;DHT22;41758;51.992;5.890;2023-07-02T06:42:15;20.90;72.50
55828;DHT22;41758;51.992;5.890;2023-07-02T06:44:41;20.90;72.40
55828;DHT22;41758;51.992;5.890;2023-07-02T06:47:07;20.90;72.40
55828;DHT22;41758;51.992;5.890;2023-07-02T06:49:33;21.00;72.30
55828;DHT22;41758;51.992;5.890;2023-07-02T06:51:58;21.00;72.20
55828;DHT22;41758;51.992;5.890;2023-07-02T06:54:26;21.10;72.20
55828;DHT22;41758;51.992;5.890;2023-07-02T06:56:52;21.10;72.40
55828;DHT22;41758;51.992;5.890;2023-07-02T06:59:24;21.10;72.00
55828;DHT22;41758;51.992;5.890;2023-07-02T07:01:50;21.10;71.80
55828;DHT22;41758;51.992;5.890;2023-07-02T07:04:16;21.10;71.60
55828;DHT22;41758;51.992;5.890;2023-07-02T07:06:42;21.10;71.80
55828;DHT22;41758;51.992;5.890;2023-07-02T07:09:08;21.20;72.00
55828;DHT22;41758;51.992;5.890;2023-07-02T07:11:34;21.20;71.80
55828;DHT22;41758;51.992;5.890;2023-07-02T07:14:00;21.30;71.60
55828;DHT22;41758;51.992;5.890;2023-07-02T07:16:26;21.20;71.10
55828;DHT22;41758;51.992;5.890;2023-07-02T07:18:52;21.20;71.00
55828;DHT22;41758;51.992;5.890;2023-07-02T07:21:18;21.20;70.80
55828;DHT22;41758;51.992;5.890;2023-07-02T07:23:44;21.20;70.70
55828;DHT22;41758;51.992;5.890;2023-07-02T07:26:10;21.20;71.10
55828;DHT22;41758;51.992;5.890;2023-07-02T07:28:36;21.20;69.90
55828;DHT22;41758;51.992;5.890;2023-07-02T07:31:01;21.20;70.50
55828;DHT22;41758;51.992;5.890;2023-07-02T07:33:27;21.30;70.20
55828;DHT22;41758;51.992;5.890;2023-07-02T07:35:53;21.30;70.20
55828;DHT22;41758;51.992;5.890;2023-07-02T07:38:19;21.20;70.50
55828;DHT22;41758;51.992;5.890;2023-07-02T07:40:45;21.30;70.50
55828;DHT22;41758;51.992;5.890;2023-07-02T07:43:11;21.40;70.80
55828;DHT22;41758;51.992;5.890;2023-07-02T07:45:37;21.50;70.80
55828;DHT22;41758;51.992;5.890;2023-07-02T07:48:04;21.60;71.00
55828;DHT22;41758;51.992;5.890;2023-07-02T07:50:30;21.70;70.80
55828;DHT22;41758;51.992;5.890;2023-07-02T07:52:55;21.80;70.50
55828;DHT22;41758;51.992;5.890;2023-07-02T07:55:21;21.90;70.90
55828;DHT22;41758;51.992;5.890;2023-07-02T07:57:47;21.90;70.20
55828;DHT22;41758;51.992;5.890;2023-07-02T08:00:13;22.00;70.10
55828;DHT22;41758;51.992;5.890;2023-07-02T08:02:46;22.00;70.30
55828;DHT22;41758;51.992;5.890;2023-07-02T08:05:14;22.00;68.50
55828;DHT22;41758;51.992;5.890;2023-07-02T08:07:40;22.00;68.50
55828;DHT22;41758;51.992;5.890;2023-07-02T08:10:06;22.00;68.30
55828;DHT22;41758;51.992;5.890;2023-07-02T08:12:34;21.90;68.90
55828;DHT22;41758;51.992;5.890;2023-07-02T08:15:00;22.00;69.20
55828;DHT22;41758;51.992;5.890;2023-07-02T08:17:25;21.90;69.40
55828;DHT22;41758;51.992;5.890;2023-07-02T08:19:51;22.00;68.90
55828;DHT22;41758;51.992;5.890;2023-07-02T08:22:17;22.00;68.60
55828;DHT22;41758;51.992;5.890;2023-07-02T08:24:43;22.00;68.30
55828;DHT22;41758;51.992;5.890;2023-07-02T08:27:09;22.00;68.40
55828;DHT22;41758;51.992;5.890;2023-07-02T08:29:35;22.10;68.30
55828;DHT22;41758;51.992;5.890;2023-07-02T08:32:02;22.10;68.60
55828;DHT22;41758;51.992;5.890;2023-07-02T08:34:28;22.20;69.00
55828;DHT22;41758;51.992;5.890;2023-07-02T08:36:53;22.30;69.40
55828;DHT22;41758;51.992;5.890;2023-07-02T08:39:19;22.40;69.30
55828;DHT22;41758;51.992;5.890;2023-07-02T08:41:46;22.40;69.00
55828;DHT22;41758;51.992;5.890;2023-07-02T08:44:12;22.40;68.00
55828;DHT22;41758;51.992;5.890;2023-07-02T08:46:39;22.40;67.60
55828;DHT22;41758;51.992;5.890;2023-07-02T08:49:07;22.40;67.40
55828;DHT22;41758;51.992;5.890;2023-07-02T08:51:33;22.40;66.40
55828;DHT22;41758;51.992;5.890;2023-07-02T08:53:58;22.40;66.60
55828;DHT22;41758;51.992;5.890;2023-07-02T08:56:24;22.40;66.70
55828;DHT22;41758;51.992;5.890;2023-07-02T08:58:52;22.40;67.20
55828;DHT22;41758;51.992;5.890;2023-07-02T09:01:18;22.40;64.90
55828;DHT22;41758;51.992;5.890;2023-07-02T09:03:44;22.40;65.50
55828;DHT22;41758;51.992;5.890;2023-07-02T09:06:10;22.50;65.60
55828;DHT22;41758;51.992;5.890;2023-07-02T09:08:36;22.50;65.80
55828;DHT22;41758;51.992;5.890;2023-07-02T09:11:10;22.60;64.20
55828;DHT22;41758;51.992;5.890;2023-07-02T09:13:43;22.60;64.00
55828;DHT22;41758;51.992;5.890;2023-07-02T09:16:24;22.60;63.70
55828;DHT22;41758;51.992;5.890;2023-07-02T09:19:03;22.60;63.70
55828;DHT22;41758;51.992;5.890;2023-07-02T09:21:46;22.50;63.60
55828;DHT22;41758;51.992;5.890;2023-07-02T09:26:42;22.60;64.20
55828;DHT22;41758;51.992;5.890;2023-07-02T09:29:08;22.70;60.90
55828;DHT22;41758;51.992;5.890;2023-07-02T09:31:46;22.70;60.90
55828;DHT22;41758;51.992;5.890;2023-07-02T09:34:12;22.70;61.80
55828;DHT22;41758;51.992;5.890;2023-07-02T09:36:39;22.80;62.00
55828;DHT22;41758;51.992;5.890;2023-07-02T09:39:18;22.80;60.30
55828;DHT22;41758;51.992;5.890;2023-07-02T09:41:45;22.90;59.40
55828;DHT22;41758;51.992;5.890;2023-07-02T09:44:13;23.00;57.80
55828;DHT22;41758;51.992;5.890;2023-07-02T09:46:48;23.00;57.70
55828;DHT22;41758;51.992;5.890;2023-07-02T09:49:17;23.10;58.50
55828;DHT22;41758;51.992;5.890;2023-07-02T09:51:45;23.10;59.20
55828;DHT22;41758;51.992;5.890;2023-07-02T09:54:12;23.30;58.50
55828;DHT22;41758;51.992;5.890;2023-07-02T09:56:39;23.30;59.00
55828;DHT22;41758;51.992;5.890;2023-07-02T09:59:05;23.40;58.50
55828;DHT22;41758;51.992;5.890;2023-07-02T10:01:31;23.60;59.00
55828;DHT22;41758;51.992;5.890;2023-07-02T10:03:57;23.60;57.70
55828;DHT22;41758;51.992;5.890;2023-07-02T10:06:22;23.70;56.80
55828;DHT22;41758;51.992;5.890;2023-07-02T10:08:55;23.80;54.40
55828;DHT22;41758;51.992;5.890;2023-07-02T10:11:32;23.80;54.60
55828;DHT22;41758;51.992;5.890;2023-07-02T10:13:59;23.90;55.60
55828;DHT22;41758;51.992;5.890;2023-07-02T10:16:25;24.00;56.70
55828;DHT22;41758;51.992;5.890;2023-07-02T10:18:53;24.10;55.30
55828;DHT22;41758;51.992;5.890;2023-07-02T10:21:20;24.20;52.50
55828;DHT22;41758;51.992;5.890;2023-07-02T10:23:46;24.30;52.20
55828;DHT22;41758;51.992;5.890;2023-07-02T10:26:15;24.30;51.10
55828;DHT22;41758;51.992;5.890;2023-07-02T10:28:59;24.40;52.50
55828;DHT22;41758;51.992;5.890;2023-07-02T10:31:26;24.60;53.80
55828;DHT22;41758;51.992;5.890;2023-07-02T10:33:51;24.70;50.70
55828;DHT22;41758;51.992;5.890;2023-07-02T10:36:18;24.80;51.80
55828;DHT22;41758;51.992;5.890;2023-07-02T10:38:45;24.80;51.10
55828;DHT22;41758;51.992;5.890;2023-07-02T10:41:11;24.90;50.70
55828;DHT22;41758;51.992;5.890;2023-07-02T10:43:37;25.10;49.80
55828;DHT22;41758;51.992;5.890;2023-07-02T10:46:03;25.10;47.50
55828;DHT22;41758;51.992;5.890;2023-07-02T10:48:29;25.10;47.90
55828;DHT22;41758;51.992;5.890;2023-07-02T10:50:54;25.20;48.70
55828;DHT22;41758;51.992;5.890;2023-07-02T10:53:20;25.30;49.40
55828;DHT22;41758;51.992;5.890;2023-07-02T10:55:57;25.20;48.30
55828;DHT22;41758;51.992;5.890;2023-07-02T10:58:23;25.20;46.90
55828;DHT22;41758;51.992;5.890;2023-07-02T11:00:50;25.20;46.80
55828;DHT22;41758;51.992;5.890;2023-07-02T11:03:18;25.20;48.30
55828;DHT22;41758;51.992;5.890;2023-07-02T11:05:45;25.30;47.50
55828;DHT22;41758;51.992;5.890;2023-07-02T11:08:11;25.40;46.10
55828;DHT22;41758;51.992;5.890;2023-07-02T11:10:37;25.50;47.50
55828;DHT22;41758;51.992;5.890;2023-07-02T11:13:15;25.70;47.70
55828;DHT22;41758;51.992;5.890;2023-07-02T11:15:41;25.90;48.60
55828;DHT22;41758;51.992;5.890;2023-07-02T11:18:15;26.10;46.90
55828;DHT22;41758;51.992;5.890;2023-07-02T11:20:42;26.30;46.60
55828;DHT22;41758;51.992;5.890;2023-07-02T11:23:24;26.40;45.00
55828;DHT22;41758;51.992;5.890;2023-07-02T11:26:02;26.50;43.40
55828;DHT22;41758;51.992;5.890;2023-07-02T11:28:30;26.60;44.40
55828;DHT22;41758;51.992;5.890;2023-07-02T11:30:57;26.80;44.00
55828;DHT22;41758;51.992;5.890;2023-07-02T11:33:37;27.00;45.30
55828;DHT22;41758;51.992;5.890;2023-07-02T11:36:04;27.10;40.50
55828;DHT22;41758;51.992;5.890;2023-07-02T11:38:30;27.10;41.20
55828;DHT22;41758;51.992;5.890;2023-07-02T11:40:56;27.10;40.30
55828;DHT22;41758;51.992;5.890;2023-07-02T11:43:21;27.10;37.20
55828;DHT22;41758;51.992;5.890;2023-07-02T11:45:47;27.00;37.70
55828;DHT22;41758;51.992;5.890;2023-07-02T11:48:13;26.80;37.40
55828;DHT22;41758;51.992;5.890;2023-07-02T11:50:39;26.80;37.80
55828;DHT22;41758;51.992;5.890;2023-07-02T11:53:04;27.00;37.50
55828;DHT22;41758;51.992;5.890;2023-07-02T11:55:30;27.10;38.10
55828;DHT22;41758;51.992;5.890;2023-07-02T11:57:56;27.30;36.70
55828;DHT22;41758;51.992;5.890;2023-07-02T12:00:22;27.30;37.80
55828;DHT22;41758;51.992;5.890;2023-07-02T12:02:49;27.60;36.90
55828;DHT22;41758;51.992;5.890;2023-07-02T12:05:15;27.60;37.10
55828;DHT22;41758;51.992;5.890;2023-07-02T12:07:41;27.40;35.90
55828;DHT22;41758;51.992;5.890;2023-07-02T12:10:07;27.40;35.20
55828;DHT22;41758;51.992;5.890;2023-07-02T12:12:33;27.40;35.30
55828;DHT22;41758;51.992;5.890;2023-07-02T12:14:59;27.50;36.70
55828;DHT22;41758;51.992;5.890;2023-07-02T12:17:25;27.80;35.90
55828;DHT22;41758;51.992;5.890;2023-07-02T12:19:51;28.00;35.20
55828;DHT22;41758;51.992;5.890;2023-07-02T12:22:16;28.10;34.10
55828;DHT22;41758;51.992;5.890;2023-07-02T12:24:45;28.10;32.70
55828;DHT22;41758;51.992;5.890;2023-07-02T12:27:11;28.20;33.40
55828;DHT22;41758;51.992;5.890;2023-07-02T12:29:38;28.30;32.50
55828;DHT22;41758;51.992;5.890;2023-07-02T12:32:04;28.30;34.70
55828;DHT22;41758;51.992;5.890;2023-07-02T12:34:31;28.60;36.20
55828;DHT22;41758;51.992;5.890;2023-07-02T12:36:57;29.00;35.00
55828;DHT22;41758;51.992;5.890;2023-07-02T12:39:23;29.30;32.80
55828;DHT22;41758;51.992;5.890;2023-07-02T12:41:49;29.50;34.10
55828;DHT22;41758;51.992;5.890;2023-07-02T12:44:14;29.80;33.30
55828;DHT22;41758;51.992;5.890;2023-07-02T12:46:41;29.80;33.00
55828;DHT22;41758;51.992;5.890;2023-07-02T12:49:06;29.70;33.80
55828;DHT22;41758;51.992;5.890;2023-07-02T12:51:32;29.90;34.10
55828;DHT22;41758;51.992;5.890;2023-07-02T12:53:59;30.00;34.70
55828;DHT22;41758;51.992;5.890;2023-07-02T12:56:25;30.00;34.50
55828;DHT22;41758;51.992;5.890;2023-07-02T12:58:51;29.90;33.90
55828;DHT22;41758;51.992;5.890;2023-07-02T13:01:17;29.80;31.40
55828;DHT22;41758;51.992;5.890;2023-07-02T13:03:47;29.40;32.70
55828;DHT22;41758;51.992;5.890;2023-07-02T13:06:13;29.60;34.20
55828;DHT22;41758;51.992;5.890;2023-07-02T13:08:39;30.00;33.00
55828;DHT22;41758;51.992;5.890;2023-07-02T13:11:05;30.20;32.00
55828;DHT22;41758;51.992;5.890;2023-07-02T13:13:31;30.30;31.90
55828;DHT22;41758;51.992;5.890;2023-07-02T13:15:57;30.30;30.20
55828;DHT22;41758;51.992;5.890;2023-07-02T13:18:23;30.30;31.90
55828;DHT22;41758;51.992;5.890;2023-07-02T13:20:49;30.30;32.10
55828;DHT22;41758;51.992;5.890;2023-07-02T13:23:14;30.10;30.40
55828;DHT22;41758;51.992;5.890;2023-07-02T13:25:40;29.80;30.20
55828;DHT22;41758;51.992;5.890;2023-07-02T13:28:06;29.60;31.90
55828;DHT22;41758;51.992;5.890;2023-07-02T13:30:32;29.50;31.70
55828;DHT22;41758;51.992;5.890;2023-07-02T13:32:58;29.30;32.40
55828;DHT22;41758;51.992;5.890;2023-07-02T13:35:24;29.30;32.90
55828;DHT22;41758;51.992;5.890;2023-07-02T13:37:50;29.40;32.40
55828;DHT22;41758;51.992;5.890;2023-07-02T13:40:16;29.60;34.10
55828;DHT22;41758;51.992;5.890;2023-07-02T13:42:42;29.80;32.30
55828;DHT22;41758;51.992;5.890;2023-07-02T13:45:09;29.80;30.80
55828;DHT22;41758;51.992;5.890;2023-07-02T13:47:35;29.80;30.60
55828;DHT22;41758;51.992;5.890;2023-07-02T13:50:02;29.80;31.90
55828;DHT22;41758;51.992;5.890;2023-07-02T13:52:29;29.80;32.20
55828;DHT22;41758;51.992;5.890;2023-07-02T13:54:55;29.80;32.00
55828;DHT22;41758;51.992;5.890;2023-07-02T13:57:21;29.80;32.70
55828;DHT22;41758;51.992;5.890;2023-07-02T13:59:47;29.70;31.80
55828;DHT22;41758;51.992;5.890;2023-07-02T14:02:13;29.70;31.90
55828;DHT22;41758;51.992;5.890;2023-07-02T14:04:38;29.50;30.90
55828;DHT22;41758;51.992;5.890;2023-07-02T14:07:04;29.20;31.00
55828;DHT22;41758;51.992;5.890;2023-07-02T14:09:31;29.10;31.00
55828;DHT22;41758;51.992;5.890;2023-07-02T14:11:56;29.00;31.70
55828;DHT22;41758;51.992;5.890;2023-07-02T14:14:22;29.00;31.40
55828;DHT22;41758;51.992;5.890;2023-07-02T14:16:49;29.00;31.60
55828;DHT22;41758;51.992;5.890;2023-07-02T14:19:15;28.80;31.60
55828;DHT22;41758;51.992;5.890;2023-07-02T14:21:42;28.80;32.30
55828;DHT22;41758;51.992;5.890;2023-07-02T14:24:08;28.90;33.10
55828;DHT22;41758;51.992;5.890;2023-07-02T14:26:34;29.10;33.60
55828;DHT22;41758;51.992;5.890;2023-07-02T14:29:00;29.30;33.90
55828;DHT22;41758;51.992;5.890;2023-07-02T14:31:26;29.60;33.50
55828;DHT22;41758;51.992;5.890;2023-07-02T14:33:52;29.70;32.10
55828;DHT22;41758;51.992;5.890;2023-07-02T14:36:18;29.80;32.30
55828;DHT22;41758;51.992;5.890;2023-07-02T14:38:43;29.90;32.60
55828;DHT22;41758;51.992;5.890;2023-07-02T14:41:09;30.20;32.50
55828;DHT22;41758;51.992;5.890;2023-07-02T14:43:35;30.40;32.00
55828;DHT22;41758;51.992;5.890;2023-07-02T14:46:02;30.40;30.80
55828;DHT22;41758;51.992;5.890;2023-07-02T14:48:29;30.50;31.40
55828;DHT22;41758;51.992;5.890;2023-07-02T14:51:00;30.40;30.80
55828;DHT22;41758;51.992;5.890;2023-07-02T14:53:28;30.50;31.70
55828;DHT22;41758;51.992;5.890;2023-07-02T14:56:00;30.70;31.20
55828;DHT22;41758;51.992;5.890;2023-07-02T14:58:27;30.60;30.20
55828;DHT22;41758;51.992;5.890;2023-07-02T15:00:55;30.70;30.40
55828;DHT22;41758;51.992;5.890;2023-07-02T15:03:22;30.90;29.30
55828;DHT22;41758;51.992;5.890;2023-07-02T15:05:49;31.10;29.00
55828;DHT22;41758;51.992;5.890;2023-07-02T15:08:16;31.50;29.90
55828;DHT22;41758;51.992;5.890;2023-07-02T15:10:52;31.90;28.30
55828;DHT22;41758;51.992;5.890;2023-07-02T15:13:19;32.00;27.10
55828;DHT22;41758;51.992;5.890;2023-07-02T15:15:45;31.90;27.30
55828;DHT22;41758;51.992;5.890;2023-07-02T15:18:11;31.80;26.90
55828;DHT22;41758;51.992;5.890;2023-07-02T15:20:37;31.70;27.50
55828;DHT22;41758;51.992;5.890;2023-07-02T15:23:03;31.80;26.20
55828;DHT22;41758;51.992;5.890;2023-07-02T15:25:32;31.90;26.60
55828;DHT22;41758;51.992;5.890;2023-07-02T15:27:58;32.00;26.50
55828;DHT22;41758;51.992;5.890;2023-07-02T15:30:23;32.10;26.20